EDT,Max TemperatureF,Mean TemperatureF,Min TemperatureF,Max Dew PointF,MeanDew PointF,Min DewpointF,Max Humidity, Mean Humidity, Min Humidity, Max Sea Level PressureIn, Mean Sea Level PressureIn, Min Sea Level PressureIn, Max VisibilityMiles, Mean VisibilityMiles, Min VisibilityMiles, Max Wind SpeedMPH, Mean Wind SpeedMPH, Max Gust SpeedMPH,PrecipitationIn, CloudCover, Events, WindDirDegrees
2013-10-1,75,64,53,63,58,54,100,86,50,30.17,30.12,30.09,10,7,0,12,1,,0.00,1,Fog,244
2013-10-2,77,66,55,63,59,55,100,84,53,30.20,30.15,30.13,10,10,7,8,1,,0.00,1,,248
2013-10-3,80,68,57,64,60,57,100,82,48,30.18,30.14,30.09,10,9,3,6,0,,0.00,0,,241
2013-10-4,80,70,59,64,62,59,100,83,51,30.20,30.15,30.12,10,8,0,8,1,,0.00,0,Fog,228
2013-10-5,80,70,60,66,63,61,100,82,54,30.18,30.13,30.06,10,9,6,9,1,,0.00,0,,208
2013-10-6,84,73,62,64,59,55,94,63,37,30.05,29.96,29.85,10,10,10,16,4,21,0.00,0,,183
2013-10-7,73,58,44,59,50,41,100,81,55,30.17,29.97,29.77,10,8,2,17,8,26,0.57,4,Rain,251
2013-10-8,64,50,37,45,41,37,100,72,37,30.29,30.24,30.17,10,8,2,12,2,,0.00,0,,49
2013-10-9,69,55,41,43,38,28,100,60,23,30.31,30.26,30.21,10,9,5,9,4,,0.00,0,,66
2013-10-10,71,60,48,57,50,39,100,75,53,30.22,30.15,30.08,10,10,7,10,4,17,0.00,1,Rain,42
2013-10-11,60,56,53,57,55,54,100,94,77,30.09,30.07,30.04,10,8,0,10,2,,0.00,7,Fog,5
2013-10-12,73,64,55,64,58,55,100,87,64,30.17,30.11,30.06,10,7,0,6,1,,0.00,6,Fog,52
2013-10-13,73,64,55,63,59,55,100,86,57,30.28,30.24,30.17,10,9,0,6,1,,0.00,3,Fog,328
2013-10-14,66,63,59,63,61,59,100,98,88,30.31,30.27,30.24,10,9,4,8,1,,0.00,7,,358
2013-10-15,73,64,55,61,57,48,100,84,50,30.24,30.14,30.05,10,6,0,4,0,,0.00,3,Fog,280
2013-10-16,69,61,53,61,54,46,100,78,59,30.05,30.00,29.95,10,10,9,12,3,16,0.00,3,,216
2013-10-17,66,57,48,64,58,48,100,99,88,29.99,29.91,29.74,10,6,0,21,5,38,0.10,8,Fog-Rain,228
2013-10-18,59,50,42,48,42,37,100,76,45,30.09,30.03,29.98,10,9,0,10,5,16,0.00,2,Fog,234
2013-10-19,55,46,37,48,43,37,100,93,72,30.01,29.93,29.83,10,9,2,15,3,26,0.03,3,Rain,240
2013-10-20,55,47,39,41,36,32,100,72,41,30.11,30.07,29.99,10,10,10,14,6,16,0.00,2,,222
2013-10-21,64,50,37,39,34,32,93,59,30,30.10,30.03,29.93,10,10,10,17,2,22,0.00,0,,217
2013-10-22,55,46,37,46,38,34,100,73,51,30.00,29.93,29.87,10,9,2,14,5,17,0.29,3,Rain,239
2013-10-23,41,38,35,41,37,36,100,100,93,29.99,29.83,29.74,10,7,1,14,3,20,0.11,5,Rain,274
2013-10-24,39,36,32,36,33,30,100,92,75,30.18,30.08,29.98,10,9,0,14,8,20,0.44,4,Fog-Rain-Snow,244
2013-10-25,41,36,30,34,31,30,100,90,65,30.39,30.31,30.18,10,8,1,8,3,,0.00,4,,230
2013-10-26,50,39,28,30,26,21,100,63,34,30.31,30.13,29.96,10,10,10,21,6,29,0.00,2,,212
2013-10-27,53,45,37,36,32,28,81,63,44,30.12,30.07,30.02,10,10,10,12,6,16,0.00,1,,244
2013-10-28,60,48,37,39,36,34,93,69,39,30.29,30.21,30.12,10,10,10,10,1,,0.00,1,,275
2013-10-29,62,48,35,46,38,36,100,71,37,30.37,30.32,30.26,10,9,5,6,0,,0.00,0,,291
2013-10-30,59,54,48,59,52,39,100,92,66,30.26,30.20,30.15,10,8,2,8,1,,0.02,6,Rain,192
2013-10-31,69,63,57,57,54,48,100,73,46,30.15,29.94,29.60,10,10,3,23,5,34,0.01,2,Rain,187